createdAt,value
2022-08-17T00:01:52.382Z,21.06
2022-08-17T00:04:20.690Z,20.86
2022-08-17T00:06:49.537Z,20.35
2022-08-17T00:09:18.433Z,20.62
2022-08-17T00:12:34.866Z,21.00
2022-08-17T00:14:33.087Z,20.89
2022-08-17T00:16:59.867Z,20.30
2022-08-17T00:19:27.434Z,20.69
2022-08-17T00:22:31.289Z,21.12
2022-08-17T00:24:44.772Z,20.70
2022-08-17T00:27:11.484Z,20.61
2022-08-17T00:29:38.178Z,20.56
2022-08-17T00:33:11.941Z,20.88
2022-08-17T00:34:51.964Z,20.50
2022-08-17T00:37:18.684Z,20.87
2022-08-17T00:39:45.426Z,20.70
2022-08-17T00:42:14.510Z,20.50
2022-08-17T00:44:41.242Z,20.71
2022-08-17T00:47:07.999Z,20.65
2022-08-17T00:49:34.695Z,20.81
2022-08-17T00:52:11.718Z,20.85
2022-08-17T00:54:42.238Z,20.37
2022-08-17T00:57:15.176Z,20.53
2022-08-17T01:00:01.639Z,20.90
2022-08-17T01:02:41.901Z,20.44
2022-08-17T01:05:15.142Z,20.17
2022-08-17T01:07:43.497Z,20.30
2022-08-17T01:10:57.150Z,20.41
2022-08-17T01:13:02.652Z,20.78
2022-08-17T01:15:34.556Z,20.22
2022-08-17T01:18:01.259Z,20.13
2022-08-17T01:20:28.090Z,20.07
2022-08-17T01:22:55.086Z,20.30
2022-08-17T01:25:22.565Z,20.17
2022-08-17T01:27:49.982Z,20.23
2022-08-17T01:30:58.506Z,20.27
2022-08-17T01:33:05.834Z,19.90
2022-08-17T01:35:32.537Z,20.29
2022-08-17T01:37:59.282Z,19.89
2022-08-17T01:40:39.338Z,20.41
2022-08-17T01:43:11.162Z,19.96
2022-08-17T01:45:45.100Z,20.38
2022-08-17T01:48:12.798Z,20.29
2022-08-17T01:50:42.137Z,20.54
2022-08-17T01:53:14.002Z,20.31
2022-08-17T01:55:47.121Z,20.54
2022-08-17T01:58:14.094Z,20.40
2022-08-17T02:00:46.885Z,20.39
2022-08-17T02:03:27.245Z,20.31
2022-08-17T02:05:54.136Z,20.09
2022-08-17T02:08:37.154Z,19.81
2022-08-17T02:11:14.746Z,19.81
2022-08-17T02:13:43.172Z,19.78
2022-08-17T02:16:09.996Z,19.59
2022-08-17T02:18:37.070Z,19.60
2022-08-17T02:21:05.034Z,19.83
2022-08-17T02:23:35.263Z,19.69
2022-08-17T02:26:02.245Z,19.84
2022-08-17T02:28:29.551Z,19.83
2022-08-17T02:31:02.294Z,19.78
2022-08-17T02:33:41.954Z,19.75
2022-08-17T02:36:12.861Z,19.82
2022-08-17T02:38:41.253Z,19.83
2022-08-17T02:41:09.267Z,19.69
2022-08-17T02:43:36.033Z,19.80
2022-08-17T02:46:02.936Z,19.68
2022-08-17T02:48:31.820Z,19.89
2022-08-17T02:51:00.547Z,19.71
2022-08-17T02:53:27.908Z,19.60
2022-08-17T02:56:02.500Z,19.61
2022-08-17T02:58:34.314Z,19.60
2022-08-17T03:01:04.269Z,19.50
2022-08-17T03:03:31.107Z,19.58
2022-08-17T03:05:57.986Z,19.58
2022-08-17T03:08:25.606Z,19.51
2022-08-17T03:10:53.098Z,19.51
2022-08-17T03:13:20.180Z,19.22
2022-08-17T03:15:48.801Z,19.16
2022-08-17T03:18:24.345Z,18.88
2022-08-17T03:20:52.647Z,19.03
2022-08-17T03:23:24.249Z,19.10
2022-08-17T03:25:53.803Z,19.05
2022-08-17T03:28:22.167Z,19.01
2022-08-17T03:30:49.610Z,19.29
2022-08-17T03:33:17.100Z,19.20
2022-08-17T03:35:44.347Z,18.84
2022-08-17T03:38:12.532Z,18.75
2022-08-17T03:40:58.819Z,18.77
2022-08-17T03:43:29.465Z,19.06
2022-08-17T03:46:28.691Z,18.86
2022-08-17T03:49:24.455Z,18.87
2022-08-17T03:52:09.967Z,18.62
2022-08-17T03:54:55.956Z,18.73
2022-08-17T03:57:23.144Z,18.60
2022-08-17T03:59:50.056Z,18.37
2022-08-17T04:02:23.374Z,18.44
2022-08-17T04:04:54.276Z,18.29
2022-08-17T04:07:23.665Z,18.33
2022-08-17T04:09:50.695Z,18.15
2022-08-17T04:12:21.614Z,18.07
2022-08-17T04:14:52.890Z,18.29
2022-08-17T04:17:25.919Z,18.50
2022-08-17T04:19:54.002Z,18.64
2022-08-17T04:22:32.656Z,18.59
2022-08-17T04:25:08.523Z,18.59
2022-08-17T04:27:36.386Z,18.60
2022-08-17T04:30:07.007Z,18.87
2022-08-17T04:33:09.820Z,18.70
2022-08-17T04:35:42.733Z,18.84
2022-08-17T04:38:13.617Z,18.81
2022-08-17T04:40:59.263Z,18.59
2022-08-17T04:43:27.697Z,18.69
2022-08-17T04:45:58.010Z,19.03
2022-08-17T04:48:35.638Z,19.14
2022-08-17T04:51:28.132Z,19.27
2022-08-17T04:53:59.147Z,19.28
2022-08-17T04:56:28.425Z,19.35
2022-08-17T04:58:57.939Z,19.49
2022-08-17T05:01:28.171Z,19.41
2022-08-17T05:03:59.231Z,19.65
2022-08-17T05:06:27.686Z,19.71
2022-08-17T05:08:55.159Z,19.99
2022-08-17T05:11:23.606Z,20.14
2022-08-17T05:13:50.531Z,20.18
2022-08-17T05:16:19.137Z,20.34
2022-08-17T05:18:46.826Z,20.52
2022-08-17T05:21:14.317Z,20.89
2022-08-17T05:23:42.765Z,21.03
2022-08-17T05:26:26.171Z,21.05
2022-08-17T05:28:57.208Z,21.22
2022-08-17T05:31:25.427Z,21.18
2022-08-17T05:33:53.363Z,21.57
2022-08-17T05:36:37.987Z,21.65
2022-08-17T05:39:07.681Z,21.73
2022-08-17T05:41:34.484Z,21.54
2022-08-17T05:44:05.412Z,21.91
2022-08-17T05:46:39.891Z,22.18
2022-08-17T05:49:08.573Z,22.26
2022-08-17T05:51:38.276Z,22.28
2022-08-17T05:54:29.261Z,22.48
2022-08-17T05:57:15.792Z,22.62
2022-08-17T05:59:57.898Z,22.80
2022-08-17T06:02:50.929Z,22.95
2022-08-17T06:05:31.913Z,23.01
2022-08-17T06:08:12.242Z,23.23
2022-08-17T06:10:50.620Z,23.37
2022-08-17T06:13:49.346Z,23.46
2022-08-17T06:16:33.176Z,23.56
2022-08-17T06:19:16.633Z,23.66
2022-08-17T06:21:47.772Z,23.88
2022-08-17T06:24:53.234Z,23.98
2022-08-17T06:27:36.309Z,23.87
2022-08-17T06:30:11.633Z,24.11
2022-08-17T06:32:43.761Z,24.29
2022-08-17T06:35:13.723Z,24.48
2022-08-17T06:37:59.907Z,24.37
2022-08-17T06:40:59.233Z,24.71
2022-08-17T06:43:34.207Z,24.80
2022-08-17T06:46:01.846Z,24.97
2022-08-17T06:49:08.042Z,24.89
2022-08-17T06:52:03.054Z,25.22
2022-08-17T06:54:38.943Z,25.36
2022-08-17T06:57:10.788Z,25.44
2022-08-17T06:59:56.439Z,25.57
2022-08-17T07:03:00.988Z,25.81
2022-08-17T07:05:53.884Z,25.97
2022-08-17T07:08:40.047Z,26.12
2022-08-17T07:11:22.048Z,26.16
2022-08-17T07:14:04.208Z,26.26
2022-08-17T07:16:33.736Z,26.40
2022-08-17T07:19:00.570Z,26.31
2022-08-17T07:21:38.622Z,26.60
2022-08-17T07:24:11.238Z,26.73
2022-08-17T07:27:07.658Z,26.79
2022-08-17T07:29:43.016Z,26.85
2022-08-17T07:32:12.071Z,27.05
2022-08-17T07:35:00.036Z,27.24
2022-08-17T07:37:27.072Z,27.09
2022-08-17T07:40:15.364Z,27.21
2022-08-17T07:42:45.113Z,27.51
2022-08-17T07:45:34.758Z,27.49
2022-08-17T07:48:20.160Z,27.70
2022-08-17T07:50:49.362Z,27.78
2022-08-17T07:53:25.855Z,27.65
2022-08-17T07:55:53.958Z,27.85
2022-08-17T07:58:23.717Z,27.93
2022-08-17T08:01:09.319Z,28.05
2022-08-17T08:03:43.097Z,28.45
2022-08-17T08:06:26.514Z,28.41
2022-08-17T08:08:56.040Z,28.55
2022-08-17T08:11:35.760Z,28.63
2022-08-17T08:14:39.781Z,28.97
2022-08-17T08:17:09.406Z,29.06
2022-08-17T08:19:36.392Z,29.19
2022-08-17T08:22:18.878Z,29.44
2022-08-17T08:25:23.248Z,29.59
2022-08-17T13:35:36.457Z,36.13
2022-08-17T13:38:10.942Z,36.02
2022-08-17T13:40:50.964Z,35.92
2022-08-17T13:43:42.873Z,35.98
2022-08-17T13:46:22.440Z,36.16
2022-08-17T13:49:09.934Z,35.82
2022-08-17T13:51:44.129Z,36.00
2022-08-17T13:58:03.503Z,34.54
2022-08-17T14:00:33.963Z,34.28
2022-08-17T14:03:02.095Z,34.10
2022-08-17T14:05:30.663Z,34.24
2022-08-17T14:08:06.831Z,34.43
2022-08-17T14:10:37.004Z,34.32
2022-08-17T14:13:05.136Z,34.01
2022-08-17T14:16:32.001Z,33.72
2022-08-17T14:18:58.892Z,33.50
2022-08-17T14:21:25.805Z,33.23
2022-08-17T14:23:54.794Z,33.54
2022-08-17T14:26:21.950Z,33.79
2022-08-17T14:28:56.303Z,33.95
2022-08-17T14:31:23.554Z,34.26
2022-08-17T14:33:50.363Z,34.55
2022-08-17T14:36:18.071Z,34.63
2022-08-17T14:38:45.207Z,34.81
2022-08-17T14:41:12.103Z,34.79
2022-08-17T14:43:39.966Z,34.70
2022-08-17T14:46:07.122Z,35.53
2022-08-17T14:48:35.880Z,35.50
2022-08-17T14:51:05.090Z,35.91
2022-08-17T14:53:31.867Z,35.96
2022-08-17T14:55:59.074Z,35.65
2022-08-17T14:58:26.130Z,34.99
2022-08-17T15:00:53.489Z,34.93
2022-08-17T15:03:20.349Z,34.79
2022-08-17T15:05:47.356Z,34.78
2022-08-17T15:08:16.663Z,34.82
2022-08-17T15:10:44.877Z,34.62
2022-08-17T15:13:21.061Z,34.53
2022-08-17T15:15:48.913Z,34.72
2022-08-17T15:18:16.694Z,34.66
2022-08-17T15:20:44.468Z,34.37
2022-08-17T15:23:20.766Z,34.27
2022-08-17T15:25:49.626Z,34.80
2022-08-17T15:28:17.265Z,34.47
2022-08-17T15:30:45.123Z,34.40
2022-08-17T15:33:29.477Z,34.34
2022-08-17T15:36:03.537Z,34.05
2022-08-17T15:38:35.338Z,33.96
2022-08-17T15:41:02.365Z,33.64
2022-08-17T15:43:33.890Z,33.49
2022-08-17T15:46:03.846Z,33.32
2022-08-17T15:48:42.523Z,33.07
2022-08-17T15:51:12.484Z,33.13
2022-08-17T15:53:41.250Z,33.22
2022-08-17T15:56:08.660Z,33.37
2022-08-17T15:58:36.678Z,33.33
2022-08-17T16:01:16.481Z,33.14
2022-08-17T16:04:04.680Z,33.38
2022-08-17T16:06:34.651Z,33.32
2022-08-17T16:09:01.468Z,33.33
2022-08-17T16:11:28.222Z,33.26
2022-08-17T16:13:56.203Z,33.22
2022-08-17T16:16:23.813Z,33.15
2022-08-17T16:18:53.681Z,33.44
2022-08-17T16:21:25.999Z,33.45
2022-08-17T16:24:13.430Z,33.53
2022-08-17T16:26:40.861Z,33.61
2022-08-17T16:29:08.383Z,33.64
2022-08-17T16:31:36.192Z,33.65
2022-08-17T16:34:17.696Z,33.39
2022-08-17T16:36:54.762Z,33.09
2022-08-17T16:39:29.136Z,33.21
2022-08-17T16:41:57.538Z,33.14
2022-08-17T16:44:25.871Z,32.86
2022-08-17T16:46:53.501Z,32.79
2022-08-17T16:49:35.261Z,32.67
2022-08-17T16:52:06.007Z,32.40
2022-08-17T16:54:33.538Z,32.29
2022-08-17T16:57:00.322Z,32.18
2022-08-17T16:59:31.704Z,32.03
2022-08-17T17:02:11.484Z,32.05
2022-08-17T17:04:45.921Z,31.82
2022-08-17T17:07:35.223Z,31.56
2022-08-17T17:10:10.644Z,31.35
2022-08-17T17:13:03.310Z,31.13
2022-08-17T17:15:33.114Z,31.03
2022-08-17T17:18:06.727Z,30.91
2022-08-17T17:20:45.905Z,30.66
2022-08-17T17:23:40.534Z,30.71
2022-08-17T17:26:49.393Z,30.59
2022-08-17T17:29:26.807Z,30.42
2022-08-17T17:32:31.117Z,30.20
2022-08-17T17:35:07.093Z,29.89
2022-08-17T17:37:35.644Z,29.34
2022-08-17T17:40:13.436Z,29.11
2022-08-17T17:42:43.682Z,28.90
2022-08-17T17:45:35.925Z,28.67
2022-08-17T17:48:03.056Z,28.77
2022-08-17T17:50:44.744Z,28.44
2022-08-17T17:53:48.626Z,28.29
2022-08-17T17:56:43.743Z,27.99
2022-08-17T17:59:16.745Z,27.66
2022-08-17T18:01:56.781Z,27.43
2022-08-17T18:04:41.401Z,26.88
2022-08-17T18:07:15.617Z,27.05
2022-08-17T18:10:19.502Z,26.88
2022-08-17T18:13:26.636Z,26.76
2022-08-17T18:15:55.649Z,26.54
2022-08-17T18:18:37.598Z,26.42
2022-08-17T18:21:21.542Z,26.36
2022-08-17T18:23:51.257Z,26.07
2022-08-17T18:26:33.333Z,26.10
2022-08-17T18:29:01.523Z,25.76
2022-08-17T18:31:29.103Z,25.94
2022-08-17T18:37:26.542Z,25.96
2022-08-17T18:39:53.415Z,25.96
2022-08-17T18:42:29.150Z,25.96
2022-08-17T18:44:56.463Z,25.64
2022-08-17T18:47:27.610Z,25.50
2022-08-17T18:50:20.451Z,25.35
2022-08-17T18:52:48.724Z,25.10
2022-08-17T18:55:31.376Z,25.08
2022-08-17T18:58:18.262Z,24.96
2022-08-17T19:00:48.555Z,24.76
2022-08-17T19:03:18.592Z,24.73
2022-08-17T19:05:45.324Z,24.59
2022-08-17T19:08:35.150Z,24.45
2022-08-17T19:11:21.428Z,24.31
2022-08-17T19:14:09.363Z,24.13
2022-08-17T19:16:57.324Z,24.07
2022-08-17T19:19:34.269Z,23.88
2022-08-17T19:22:28.993Z,23.85
2022-08-17T19:25:19.021Z,23.77
2022-08-17T19:27:57.522Z,23.33
2022-08-17T19:30:25.205Z,23.98
2022-08-17T19:32:53.123Z,24.23
2022-08-17T19:35:22.878Z,24.25
2022-08-17T19:38:03.855Z,24.42
2022-08-17T19:40:52.839Z,24.21
2022-08-17T19:43:48.462Z,24.34
2022-08-17T19:46:15.185Z,24.33
2022-08-17T19:48:54.203Z,24.39
2022-08-17T19:51:35.763Z,24.34
2022-08-17T19:54:06.588Z,24.30
2022-08-17T19:56:41.704Z,24.07
2022-08-17T19:59:46.472Z,24.01
2022-08-17T20:02:36.699Z,23.87
2022-08-17T20:05:12.180Z,23.85
2022-08-17T20:07:41.957Z,23.79
2022-08-17T20:10:17.663Z,23.58
2022-08-17T20:12:50.612Z,23.64
2022-08-17T20:15:23.277Z,23.49
2022-08-17T20:17:50.844Z,23.38
2022-08-17T20:20:38.835Z,23.39
2022-08-17T20:23:26.552Z,23.35
2022-08-17T20:26:19.412Z,23.24
2022-08-17T20:29:14.354Z,23.16
2022-08-17T20:31:55.645Z,23.06
2022-08-17T20:34:33.403Z,22.99
2022-08-17T20:37:04.072Z,22.93
2022-08-17T20:39:38.025Z,22.91
2022-08-17T20:42:10.379Z,22.76
2022-08-17T20:44:40.381Z,22.90
2022-08-17T20:47:18.513Z,22.79
2022-08-17T20:49:45.231Z,22.82
2022-08-17T20:52:16.703Z,22.68
2022-08-17T20:54:55.961Z,22.39
2022-08-17T20:57:31.876Z,22.47
2022-08-17T21:00:04.887Z,22.49
2022-08-17T21:02:32.472Z,22.33
2022-08-17T21:05:05.449Z,22.44
2022-08-17T21:07:42.792Z,22.35
2022-08-17T21:10:13.995Z,22.23
2022-08-17T21:12:41.637Z,22.35
2022-08-17T21:15:28.652Z,22.18
2022-08-17T21:18:07.151Z,22.08
2022-08-17T21:20:49.408Z,21.91
2022-08-17T21:23:25.246Z,21.95
2022-08-17T21:26:09.176Z,21.81
2022-08-17T21:29:01.202Z,21.51
2022-08-17T21:31:40.153Z,21.38
2022-08-17T21:34:24.532Z,21.13
2022-08-17T21:36:51.532Z,21.19
2022-08-17T21:39:33.608Z,21.05
2022-08-17T21:42:01.404Z,20.99
2022-08-17T21:44:35.463Z,20.74
2022-08-17T21:47:23.812Z,20.87
2022-08-17T21:49:52.245Z,20.63
2022-08-17T21:52:22.344Z,20.64
2022-08-17T21:55:02.528Z,20.63
2022-08-17T21:57:30.997Z,20.48
2022-08-17T22:00:01.390Z,20.37
2022-08-17T22:02:37.110Z,20.25
2022-08-17T22:05:11.614Z,20.16
2022-08-17T22:07:53.304Z,20.07
2022-08-17T22:10:31.150Z,19.94
2022-08-17T22:13:16.964Z,20.04
2022-08-17T22:15:47.935Z,20.03
2022-08-17T22:18:21.726Z,19.47
2022-08-17T22:20:55.274Z,20.18
2022-08-17T22:24:01.817Z,20.46
2022-08-17T22:27:12.462Z,20.83
2022-08-17T22:29:57.076Z,21.04
2022-08-17T22:32:41.497Z,21.21
2022-08-17T22:35:29.487Z,21.28
2022-08-17T22:37:57.022Z,21.32
2022-08-17T22:40:30.539Z,21.46
2022-08-17T22:42:59.020Z,21.37
2022-08-17T22:45:31.193Z,21.21
2022-08-17T22:48:00.577Z,21.22
2022-08-17T22:50:33.067Z,21.10
2022-08-17T22:53:31.894Z,21.25
2022-08-17T22:56:17.562Z,21.35
2022-08-17T22:59:11.033Z,21.43
2022-08-17T23:01:39.213Z,21.47
2022-08-17T23:04:32.392Z,21.47
2022-08-17T23:06:59.144Z,21.64
2022-08-17T23:09:25.862Z,21.61
2022-08-17T23:11:58.817Z,21.68
2022-08-17T23:14:31.782Z,21.77
2022-08-17T23:17:02.385Z,21.77
2022-08-17T23:19:31.817Z,21.20
2022-08-17T23:22:01.795Z,21.53
2022-08-17T23:24:35.845Z,21.73
2022-08-17T23:27:07.744Z,21.54
2022-08-17T23:29:35.441Z,21.45
2022-08-17T23:32:04.789Z,21.36
2022-08-17T23:34:31.704Z,21.06
2022-08-17T23:36:58.625Z,21.07
2022-08-17T23:39:28.106Z,20.51
2022-08-17T23:41:59.549Z,20.87
2022-08-17T23:44:27.498Z,20.45
2022-08-17T23:46:54.575Z,20.82
2022-08-17T23:49:21.710Z,20.61
2022-08-17T23:51:49.138Z,20.52
2022-08-17T23:54:21.938Z,20.40
2022-08-17T23:56:48.797Z,20.25
2022-08-17T23:59:18.335Z,20.27
